Time,TemperatureF,DewpointF,PressureIn,WindDirection,WindDirectionDegrees,WindSpeedMPH,WindSpeedGustMPH,Humidity,HourlyPrecipIn,Conditions,Clouds,dailyrainin,SolarRadiationWatts/m^2,SoftwareType,DateUTC
2013-08-13 00:00:00,72.7,71.5,29.91,SW,222,1.0,3.0,96,0.00,RA,RA,0.00,0.0,WeatherDisplay:10.37,2013-08-13 05:00:00,
2013-08-13 00:10:00,72.6,71.4,29.91,SW,230,1.0,2.0,96,0.00,BKN,BKN,0.00,0.0,WeatherDisplay:10.37,2013-08-13 05:10:00,
2013-08-13 00:20:00,72.7,71.5,29.90,SW,215,1.0,4.0,96,0.00,BKN,BKN,0.00,0.0,WeatherDisplay:10.37,2013-08-13 05:20:00,
2013-08-13 00:30:00,72.7,71.5,29.90,SW,222,1.0,3.0,96,0.00,BKN,BKN,0.00,0.0,WeatherDisplay:10.37,2013-08-13 05:30:00,
2013-08-13 00:40:00,72.6,71.4,29.90,SW,214,0.0,2.0,96,0.00,SCT,SCT,0.00,0.0,WeatherDisplay:10.37,2013-08-13 05:40:00,
2013-08-13 00:50:00,72.8,71.6,29.90,SSW,211,0.0,2.0,96,0.00,SCT,SCT,0.00,0.0,WeatherDisplay:10.37,2013-08-13 05:50:00,
2013-08-13 01:00:00,73.0,72.1,29.91,West,281,1.0,2.0,97,0.00,OVC,OVC,0.00,0.0,WeatherDisplay:10.37,2013-08-13 06:00:00,
2013-08-13 01:10:00,73.2,72.0,29.91,West,264,1.0,3.0,96,0.00,OVC,OVC,0.00,0.0,WeatherDisplay:10.37,2013-08-13 06:10:00,
2013-08-13 01:20:00,73.4,72.1,29.90,SW,230,0.0,4.0,96,0.00,OVC,OVC,0.00,0.0,WeatherDisplay:10.37,2013-08-13 06:20:00,
2013-08-13 01:30:00,73.3,72.1,29.90,WSW,247,1.0,4.0,96,0.00,BKN,BKN,0.00,0.0,WeatherDisplay:10.37,2013-08-13 06:30:00,
2013-08-13 01:40:00,73.3,72.1,29.90,WSW,253,1.0,2.0,96,0.00,BKN,BKN,0.00,0.0,WeatherDisplay:10.37,2013-08-13 06:40:00,
2013-08-13 01:50:00,73.4,72.2,29.91,WSW,252,0.0,2.0,96,0.00,BKN,BKN,0.00,0.0,WeatherDisplay:10.37,2013-08-13 06:50:00,
2013-08-13 02:00:00,73.4,72.2,29.91,SW,222,0.0,1.0,96,0.00,OVC,OVC,0.00,0.0,WeatherDisplay:10.37,2013-08-13 07:00:00,
2013-08-13 02:10:00,73.3,72.1,29.90,SW,214,1.0,2.0,96,0.00,OVC,OVC,0.00,0.0,WeatherDisplay:10.37,2013-08-13 07:10:00,
2013-08-13 02:20:00,73.3,72.1,29.89,SW,215,1.0,3.0,96,0.00,OVC,OVC,0.00,0.0,WeatherDisplay:10.37,2013-08-13 07:20:00,
2013-08-13 02:30:00,73.3,72.1,29.89,SW,217,1.0,3.0,96,0.00,OVC,OVC,0.00,0.0,WeatherDisplay:10.37,2013-08-13 07:30:00,
2013-08-13 02:40:00,73.4,72.2,29.89,SW,223,0.0,2.0,96,0.00,OVC,OVC,0.00,0.0,WeatherDisplay:10.37,2013-08-13 07:40:00,
2013-08-13 02:50:00,73.3,72.4,29.89,West,271,1.0,2.0,97,0.00,OVC,OVC,0.00,0.0,WeatherDisplay:10.37,2013-08-13 07:50:00,
2013-08-13 03:00:00,73.5,72.6,29.89,WNW,303,1.0,3.0,97,0.00,OVC,OVC,0.00,0.0,WeatherDisplay:10.37,2013-08-13 08:00:00,
2013-08-13 03:10:00,73.7,72.5,29.89,NW,326,1.0,5.0,96,0.00,OVC,OVC,0.00,0.0,WeatherDisplay:10.37,2013-08-13 08:10:00,
2013-08-13 03:20:00,73.6,72.4,29.89,NW,315,0.0,4.0,96,0.00,OVC,OVC,0.00,0.0,WeatherDisplay:10.37,2013-08-13 08:20:00,
2013-08-13 03:30:00,73.5,72.3,29.89,NW,305,2.0,4.0,96,0.00,OVC,OVC,0.00,0.0,WeatherDisplay:10.37,2013-08-13 08:30:00,
2013-08-13 03:40:00,73.5,72.3,29.89,NW,322,3.0,6.0,96,0.00,OVC,OVC,0.00,0.0,WeatherDisplay:10.37,2013-08-13 08:40:00,
2013-08-13 03:50:00,73.7,72.5,29.89,NW,324,1.0,6.0,96,0.00,OVC,OVC,0.00,0.0,WeatherDisplay:10.37,2013-08-13 08:50:00,
2013-08-13 04:00:00,73.7,72.5,29.89,WNW,296,1.0,4.0,96,0.00,OVC,OVC,0.00,0.0,WeatherDisplay:10.37,2013-08-13 09:00:00,
2013-08-13 04:10:00,73.7,72.5,29.89,NW,310,2.0,4.0,96,0.00,OVC,OVC,0.00,0.0,WeatherDisplay:10.37,2013-08-13 09:10:00,
2013-08-13 04:20:00,73.8,72.6,29.89,NW,316,2.0,7.0,96,0.00,OVC,OVC,0.00,0.0,WeatherDisplay:10.37,2013-08-13 09:20:00,
2013-08-13 04:30:00,73.9,73.0,29.89,NW,316,2.0,7.0,97,0.00,OVC,OVC,0.00,0.0,WeatherDisplay:10.37,2013-08-13 09:30:00,
2013-08-13 04:40:00,74.0,72.8,29.89,NW,324,3.0,6.0,96,0.00,OVC,OVC,0.00,0.0,WeatherDisplay:10.37,2013-08-13 09:40:00,
2013-08-13 04:50:00,74.1,72.9,29.89,NW,326,2.0,6.0,96,0.00,OVC,OVC,0.00,0.0,WeatherDisplay:10.37,2013-08-13 09:50:00,
2013-08-13 05:00:00,74.2,73.0,29.89,NNW,328,3.0,6.0,96,0.00,OVC,OVC,0.00,0.0,WeatherDisplay:10.37,2013-08-13 10:00:00,
2013-08-13 05:10:00,74.2,73.0,29.89,NW,323,1.0,7.0,96,0.00,OVC,OVC,0.00,0.0,WeatherDisplay:10.37,2013-08-13 10:10:00,
2013-08-13 05:20:00,74.1,72.9,29.89,NW,318,0.0,2.0,96,0.00,OVC,OVC,0.00,0.0,WeatherDisplay:10.37,2013-08-13 10:20:00,
2013-08-13 05:30:00,74.0,72.8,29.89,NW,321,1.0,3.0,96,0.00,OVC,OVC,0.00,0.0,WeatherDisplay:10.37,2013-08-13 10:30:00,
2013-08-13 05:40:00,73.9,72.7,29.90,NW,320,1.0,3.0,96,0.00,OVC,OVC,0.00,0.0,WeatherDisplay:10.37,2013-08-13 10:40:00,
2013-08-13 05:50:00,73.8,72.6,29.90,NW,323,1.0,3.0,96,0.00,OVC,OVC,0.00,0.0,WeatherDisplay:10.37,2013-08-13 10:50:00,
2013-08-13 06:00:00,73.7,72.5,29.91,NW,318,1.0,2.0,96,0.00,OVC,OVC,0.00,0.0,WeatherDisplay:10.37,2013-08-13 11:00:00,
2013-08-13 06:10:00,73.6,72.4,29.90,NW,308,1.0,2.0,96,0.00,OVC,OVC,0.00,0.0,WeatherDisplay:10.37,2013-08-13 11:10:00,
2013-08-13 06:20:00,73.5,72.3,29.91,NW,306,2.0,4.0,96,0.00,BKN,BKN,0.00,0.0,WeatherDisplay:10.37,2013-08-13 11:20:00,
2013-08-13 06:30:00,73.5,72.3,29.91,NW,317,2.0,4.0,96,0.00,BKN,BKN,0.00,0.0,WeatherDisplay:10.37,2013-08-13 11:30:00,
2013-08-13 06:40:00,73.5,72.3,29.91,NW,317,2.0,5.0,96,0.00,BKN,BKN,0.00,0.0,WeatherDisplay:10.37,2013-08-13 11:40:00,
2013-08-13 06:50:00,73.5,72.3,29.91,NW,317,2.0,5.0,96,0.00,OVC,OVC,0.00,0.0,WeatherDisplay:10.37,2013-08-13 11:50:00,
2013-08-13 07:00:00,73.5,72.3,29.91,NNW,329,1.0,5.0,96,0.00,OVC,OVC,0.00,0.0,WeatherDisplay:10.37,2013-08-13 12:00:00,
2013-08-13 07:10:00,73.5,72.3,29.91,North,354,2.0,4.0,96,0.00,OVC,OVC,0.00,0.0,WeatherDisplay:10.37,2013-08-13 12:10:00,
2013-08-13 07:20:00,73.6,72.4,29.92,North,360,1.0,6.0,96,0.00,OVC,OVC,0.00,0.0,WeatherDisplay:10.37,2013-08-13 12:20:00,
2013-08-13 07:30:00,73.7,72.2,29.92,NNW,337,2.0,8.0,95,0.00,OVC,OVC,0.00,0.0,WeatherDisplay:10.37,2013-08-13 12:30:00,
2013-08-13 07:40:00,73.8,72.0,29.92,NNW,332,2.0,7.0,94,0.00,OVC,OVC,0.00,0.0,WeatherDisplay:10.37,2013-08-13 12:40:00,
2013-08-13 07:50:00,74.0,72.1,29.92,North,357,3.0,4.0,94,0.00,OVC,OVC,0.00,0.0,WeatherDisplay:10.37,2013-08-13 12:50:00,
2013-08-13 08:00:00,74.0,72.2,29.93,North,10,1.0,5.0,94,0.00,OVC,OVC,0.00,0.0,WeatherDisplay:10.37,2013-08-13 13:00:00,
2013-08-13 08:10:00,74.0,71.8,29.94,NW,326,1.0,4.0,93,0.00,BKN,BKN,0.00,0.0,WeatherDisplay:10.37,2013-08-13 13:10:00,
2013-08-13 08:20:00,74.5,72.1,29.94,North,357,3.0,8.0,92,0.00,BKN,BKN,0.00,0.0,WeatherDisplay:10.37,2013-08-13 13:20:00,
2013-08-13 08:30:00,75.0,72.2,29.94,NNE,25,3.0,9.0,91,0.00,BKN,BKN,0.00,0.0,WeatherDisplay:10.37,2013-08-13 13:30:00,
2013-08-13 08:40:00,75.5,72.0,29.94,NNE,22,3.0,8.0,89,0.00,BKN,BKN,0.00,0.0,WeatherDisplay:10.37,2013-08-13 13:40:00,
2013-08-13 08:50:00,75.7,71.9,29.94,NNE,14,3.0,8.0,88,0.00,BKN,BKN,0.00,0.0,WeatherDisplay:10.37,2013-08-13 13:50:00,
2013-08-13 09:00:00,75.6,71.5,29.94,NE,34,5.0,9.0,87,0.00,BKN,BKN,0.00,0.0,WeatherDisplay:10.37,2013-08-13 14:00:00,
2013-08-13 09:10:00,76.5,72.0,29.95,NNE,14,3.0,7.0,86,0.00,BKN,BKN,0.00,0.0,WeatherDisplay:10.37,2013-08-13 14:10:00,
2013-08-13 09:20:00,76.6,71.7,29.95,NNE,20,3.0,7.0,85,0.00,BKN,BKN,0.00,0.0,WeatherDisplay:10.37,2013-08-13 14:20:00,
2013-08-13 09:30:00,77.1,72.2,29.95,NNE,14,2.0,5.0,85,0.00,BKN,BKN,0.00,0.0,WeatherDisplay:10.37,2013-08-13 14:30:00,
2013-08-13 09:40:00,78.0,72.8,29.96,NE,46,2.0,6.0,84,0.00,BKN,BKN,0.00,0.0,WeatherDisplay:10.37,2013-08-13 14:40:00,
2013-08-13 09:50:00,78.1,72.1,29.96,NE,39,5.0,8.0,82,0.00,BKN,BKN,0.00,0.0,WeatherDisplay:10.37,2013-08-13 14:50:00,
2013-08-13 10:00:00,78.0,72.4,29.96,NE,34,2.0,5.0,83,0.00,BKN,BKN,0.00,0.0,WeatherDisplay:10.37,2013-08-13 15:00:00,
2013-08-13 10:10:00,78.8,72.5,29.96,NW,324,3.0,5.0,81,0.00,BKN,BKN,0.00,0.0,WeatherDisplay:10.37,2013-08-13 15:10:00,
2013-08-13 10:20:00,78.1,71.8,29.96,NNW,328,2.0,6.0,81,0.00,BKN,BKN,0.00,0.0,WeatherDisplay:10.37,2013-08-13 15:20:00,
2013-08-13 10:30:00,78.6,72.3,29.96,NNW,346,2.0,6.0,81,0.00,BKN,BKN,0.00,0.0,WeatherDisplay:10.37,2013-08-13 15:30:00,
2013-08-13 10:40:00,80.2,73.5,29.97,NW,313,2.0,5.0,80,0.00,BKN,BKN,0.00,0.0,WeatherDisplay:10.37,2013-08-13 15:40:00,
2013-08-13 10:50:00,79.4,72.7,29.97,NNW,327,2.0,4.0,80,0.00,BKN,BKN,0.00,0.0,WeatherDisplay:10.37,2013-08-13 15:50:00,
2013-08-13 11:00:00,80.3,72.8,29.96,NNW,344,2.0,6.0,78,0.00,BKN,BKN,0.00,0.0,WeatherDisplay:10.37,2013-08-13 16:00:00,
2013-08-13 11:10:00,81.2,72.9,29.96,WNW,292,3.0,5.0,76,0.00,BKN,BKN,0.00,0.0,WeatherDisplay:10.37,2013-08-13 16:10:00,
2013-08-13 11:20:00,81.5,73.2,29.97,NW,307,2.0,4.0,76,0.00,SCT,SCT,0.00,0.0,WeatherDisplay:10.37,2013-08-13 16:20:00,
2013-08-13 11:30:00,80.8,73.3,29.97,West,264,2.0,6.0,78,0.00,SCT,SCT,0.00,0.0,WeatherDisplay:10.37,2013-08-13 16:30:00,
2013-08-13 11:40:00,81.0,73.5,29.96,WSW,243,2.0,5.0,78,0.00,FEW,FEW,0.00,0.0,WeatherDisplay:10.37,2013-08-13 16:40:00,
2013-08-13 11:50:00,81.4,72.7,29.97,WNW,289,1.0,3.0,75,0.00,FEW,FEW,0.00,0.0,WeatherDisplay:10.37,2013-08-13 16:50:00,
2013-08-13 12:00:00,80.7,72.4,29.96,NW,312,2.0,6.0,76,0.00,BKN,BKN,0.00,0.0,WeatherDisplay:10.37,2013-08-13 17:00:00,
2013-08-13 12:20:00,80.7,72.0,29.96,NW,316,6.0,8.0,75,0.00,BKN,BKN,0.00,0.0,WeatherDisplay:10.37,2013-08-13 17:20:00,
2013-08-13 12:30:00,81.3,72.2,29.96,WNW,299,2.0,8.0,74,0.00,BKN,BKN,0.00,0.0,WeatherDisplay:10.37,2013-08-13 17:30:00,
2013-08-13 12:40:00,81.6,72.5,29.96,WNW,299,3.0,9.0,74,0.00,BKN,BKN,0.00,0.0,WeatherDisplay:10.37,2013-08-13 17:40:00,
2013-08-13 12:50:00,81.4,72.3,29.96,NNW,334,3.0,9.0,74,0.00,BKN,BKN,0.00,0.0,WeatherDisplay:10.37,2013-08-13 17:50:00,
2013-08-13 13:00:00,81.5,72.8,29.96,NNW,333,3.0,9.0,75,0.00,BKN,BKN,0.00,0.0,WeatherDisplay:10.37,2013-08-13 18:00:00,
2013-08-13 13:10:00,81.5,72.8,29.96,NNW,348,2.0,10.0,75,0.00,BKN,BKN,0.00,0.0,WeatherDisplay:10.37,2013-08-13 18:10:00,
2013-08-13 13:20:00,81.2,72.9,29.95,NW,306,2.0,12.0,76,0.00,BKN,BKN,0.00,0.0,WeatherDisplay:10.37,2013-08-13 18:20:00,
2013-08-13 13:30:00,81.6,72.1,29.95,NW,307,3.0,8.0,73,0.00,BKN,BKN,0.00,0.0,WeatherDisplay:10.37,2013-08-13 18:30:00,
2013-08-13 13:40:00,82.2,71.8,29.95,NW,306,3.0,8.0,71,0.00,BKN,BKN,0.00,0.0,WeatherDisplay:10.37,2013-08-13 18:40:00,
2013-08-13 13:50:00,82.3,72.4,29.95,NNW,344,3.0,8.0,72,0.00,SCT,SCT,0.00,0.0,WeatherDisplay:10.37,2013-08-13 18:50:00,
2013-08-13 14:00:00,82.5,71.3,29.95,NW,317,2.0,7.0,69,0.00,SCT,SCT,0.00,0.0,WeatherDisplay:10.37,2013-08-13 19:00:00,
2013-08-13 14:10:00,82.8,68.9,29.95,NNW,336,3.0,9.0,63,0.00,SCT,SCT,0.00,0.0,WeatherDisplay:10.37,2013-08-13 19:10:00,
2013-08-13 14:20:00,82.8,68.9,29.94,NNW,329,7.0,12.0,63,0.00,SCT,SCT,0.00,0.0,WeatherDisplay:10.37,2013-08-13 19:20:00,
2013-08-13 14:30:00,82.4,69.4,29.94,NNW,331,6.0,13.0,65,0.00,SCT,SCT,0.00,0.0,WeatherDisplay:10.37,2013-08-13 19:30:00,
2013-08-13 14:40:00,81.8,69.3,29.93,NNW,345,5.0,12.0,66,0.00,SCT,SCT,0.00,0.0,WeatherDisplay:10.37,2013-08-13 19:40:00,
2013-08-13 14:50:00,81.7,69.7,29.93,NNW,347,3.0,10.0,67,0.00,SCT,SCT,0.00,0.0,WeatherDisplay:10.37,2013-08-13 19:50:00,
2013-08-13 15:00:00,82.1,70.9,29.93,NW,324,3.0,9.0,69,0.00,SCT,SCT,0.00,0.0,WeatherDisplay:10.37,2013-08-13 20:00:00,
2013-08-13 15:10:00,82.2,71.1,29.93,NW,326,2.0,9.0,69,0.00,SCT,SCT,0.00,0.0,WeatherDisplay:10.37,2013-08-13 20:10:00,
2013-08-13 15:20:00,82.9,70.4,29.92,North,351,5.0,10.0,66,0.00,SCT,SCT,0.00,0.0,WeatherDisplay:10.37,2013-08-13 20:20:00,
2013-08-13 15:30:00,83.1,70.6,29.92,NNW,338,7.0,12.0,66,0.00,SCT,SCT,0.00,0.0,WeatherDisplay:10.37,2013-08-13 20:30:00,
2013-08-13 15:40:00,82.3,70.7,29.92,NNW,329,6.0,12.0,68,0.00,SCT,SCT,0.00,0.0,WeatherDisplay:10.37,2013-08-13 20:40:00,
2013-08-13 15:50:00,82.8,70.3,29.91,North,356,7.0,12.0,66,0.00,CLR,CLR,0.00,0.0,WeatherDisplay:10.37,2013-08-13 20:50:00,
2013-08-13 16:00:00,82.5,70.4,29.91,NNW,345,7.0,13.0,67,0.00,CLR,CLR,0.00,0.0,WeatherDisplay:10.37,2013-08-13 21:00:00,
2013-08-13 16:10:00,82.5,70.0,29.91,NNW,329,5.0,12.0,66,0.00,FEW,FEW,0.00,0.0,WeatherDisplay:10.37,2013-08-13 21:10:00,
2013-08-13 16:20:00,82.9,68.5,29.90,North,10,6.0,12.0,62,0.00,FEW,FEW,0.00,0.0,WeatherDisplay:10.37,2013-08-13 21:20:00,
2013-08-13 16:30:00,83.6,68.2,29.90,North,360,6.0,14.0,60,0.00,BKN,BKN,0.00,0.0,WeatherDisplay:10.37,2013-08-13 21:30:00,
2013-08-13 16:40:00,83.2,67.9,29.90,North,9,8.0,15.0,60,0.00,BKN,BKN,0.00,0.0,WeatherDisplay:10.37,2013-08-13 21:40:00,
2013-08-13 16:50:00,82.9,68.0,29.90,North,10,9.0,14.0,61,0.00,BKN,BKN,0.00,0.0,WeatherDisplay:10.37,2013-08-13 21:50:00,
2013-08-13 17:00:00,82.7,67.9,29.90,NNE,14,6.0,13.0,61,0.00,BKN,BKN,0.00,0.0,WeatherDisplay:10.37,2013-08-13 22:00:00,
2013-08-13 17:10:00,82.8,67.0,29.90,North,355,8.0,13.0,59,0.00,BKN,BKN,0.00,0.0,WeatherDisplay:10.37,2013-08-13 22:10:00,
2013-08-13 17:20:00,82.9,67.6,29.90,NNE,14,5.0,11.0,60,0.00,BKN,BKN,0.00,0.0,WeatherDisplay:10.37,2013-08-13 22:20:00,
2013-08-13 17:30:00,82.8,68.0,29.91,North,7,7.0,12.0,61,0.00,CLR,CLR,0.00,0.0,WeatherDisplay:10.37,2013-08-13 22:30:00,
2013-08-13 17:40:00,83.1,67.8,29.91,North,9,5.0,12.0,60,0.00,CLR,CLR,0.00,0.0,WeatherDisplay:10.37,2013-08-13 22:40:00,
2013-08-13 17:50:00,82.4,67.6,29.91,NNE,20,5.0,12.0,61,0.00,CLR,CLR,0.00,0.0,WeatherDisplay:10.37,2013-08-13 22:50:00,
2013-08-13 18:00:00,82.3,66.0,29.91,NNE,15,7.0,13.0,58,0.00,CLR,CLR,0.00,0.0,WeatherDisplay:10.37,2013-08-13 23:00:00,
2013-08-13 18:10:00,82.5,64.7,29.91,NNE,16,7.0,9.0,55,0.00,SCT,SCT,0.00,0.0,WeatherDisplay:10.37,2013-08-13 23:10:00,
2013-08-13 18:20:00,82.0,65.8,29.91,NNE,17,5.0,8.0,58,0.00,SCT,SCT,0.00,0.0,WeatherDisplay:10.37,2013-08-13 23:20:00,
2013-08-13 18:30:00,81.6,66.9,29.91,NNE,28,6.0,12.0,61,0.00,CLR,CLR,0.00,0.0,WeatherDisplay:10.37,2013-08-13 23:30:00,
2013-08-13 18:40:00,81.3,67.0,29.91,North,8,2.0,8.0,62,0.00,CLR,CLR,0.00,0.0,WeatherDisplay:10.37,2013-08-13 23:40:00,
2013-08-13 18:50:00,80.6,67.3,29.91,NNE,14,3.0,9.0,64,0.00,CLR,CLR,0.00,0.0,WeatherDisplay:10.37,2013-08-13 23:50:00,
2013-08-13 19:00:00,80.0,67.6,29.91,NNE,16,2.0,7.0,66,0.00,CLR,CLR,0.00,0.0,WeatherDisplay:10.37,2013-08-14 00:00:00,
2013-08-13 19:10:00,79.4,67.9,29.91,NNE,24,3.0,8.0,68,0.00,CLR,CLR,0.00,0.0,WeatherDisplay:10.37,2013-08-14 00:10:00,
2013-08-13 19:20:00,78.9,68.3,29.91,NNE,15,2.0,5.0,70,0.00,CLR,CLR,0.00,0.0,WeatherDisplay:10.37,2013-08-14 00:20:00,
2013-08-13 19:30:00,78.5,68.3,29.91,North,6,3.0,5.0,71,0.00,CLR,CLR,0.00,0.0,WeatherDisplay:10.37,2013-08-14 00:30:00,
2013-08-13 19:40:00,78.1,68.3,29.91,NNE,12,3.0,6.0,72,0.00,CLR,CLR,0.00,0.0,WeatherDisplay:10.37,2013-08-14 00:40:00,
2013-08-13 19:50:00,77.7,68.4,29.92,NNE,15,3.0,6.0,73,0.00,CLR,CLR,0.00,0.0,WeatherDisplay:10.37,2013-08-14 00:50:00,
2013-08-13 20:00:00,77.4,68.5,29.92,NNE,12,3.0,7.0,74,0.00,CLR,CLR,0.00,0.0,WeatherDisplay:10.37,2013-08-14 01:00:00,
2013-08-13 20:10:00,77.1,68.2,29.93,North,8,3.0,9.0,74,0.00,CLR,CLR,0.00,0.0,WeatherDisplay:10.37,2013-08-14 01:10:00,
2013-08-13 20:20:00,76.8,68.3,29.93,North,5,6.0,9.0,75,0.00,CLR,CLR,0.00,0.0,WeatherDisplay:10.37,2013-08-14 01:20:00,
2013-08-13 20:30:00,76.6,68.5,29.94,NNE,15,5.0,10.0,76,0.00,CLR,CLR,0.00,0.0,WeatherDisplay:10.37,2013-08-14 01:30:00,
2013-08-13 20:40:00,76.2,68.4,29.94,North,6,6.0,9.0,77,0.00,CLR,CLR,0.00,0.0,WeatherDisplay:10.37,2013-08-14 01:40:00,
2013-08-13 20:50:00,75.7,68.0,29.95,NNE,26,3.0,9.0,77,0.00,CLR,CLR,0.00,0.0,WeatherDisplay:10.37,2013-08-14 01:50:00,
2013-08-13 21:00:00,75.4,68.1,29.95,NNE,16,2.0,8.0,78,0.00,CLR,CLR,0.00,0.0,WeatherDisplay:10.37,2013-08-14 02:00:00,
2013-08-13 21:10:00,75.2,67.9,29.96,NNE,22,3.0,7.0,78,0.00,CLR,CLR,0.00,0.0,WeatherDisplay:10.37,2013-08-14 02:10:00,
2013-08-13 21:20:00,74.9,67.6,29.96,NE,37,3.0,6.0,78,0.00,CLR,CLR,0.00,0.0,WeatherDisplay:10.37,2013-08-14 02:20:00,
2013-08-13 21:30:00,74.7,67.4,29.97,NE,38,5.0,9.0,78,0.00,CLR,CLR,0.00,0.0,WeatherDisplay:10.37,2013-08-14 02:30:00,
2013-08-13 21:40:00,74.6,67.3,29.97,NNE,32,2.0,8.0,78,0.00,CLR,CLR,0.00,0.0,WeatherDisplay:10.37,2013-08-14 02:40:00,
2013-08-13 21:50:00,74.4,66.7,29.98,NNE,33,5.0,8.0,77,0.00,CLR,CLR,0.00,0.0,WeatherDisplay:10.37,2013-08-14 02:50:00,
2013-08-13 22:00:00,74.2,66.5,29.98,NE,38,6.0,13.0,77,0.00,CLR,CLR,0.00,0.0,WeatherDisplay:10.37,2013-08-14 03:00:00,
2013-08-13 22:10:00,74.0,66.3,29.99,NE,35,5.0,12.0,77,0.00,CLR,CLR,0.00,0.0,WeatherDisplay:10.37,2013-08-14 03:10:00,
2013-08-13 22:20:00,73.7,66.1,29.99,NE,34,5.0,12.0,77,0.00,CLR,CLR,0.00,0.0,WeatherDisplay:10.37,2013-08-14 03:20:00,
2013-08-13 22:30:00,73.5,66.2,29.99,NE,36,3.0,12.0,78,0.00,CLR,CLR,0.00,0.0,WeatherDisplay:10.37,2013-08-14 03:30:00,
2013-08-13 22:40:00,73.2,65.9,29.99,NNE,29,7.0,10.0,78,0.00,CLR,CLR,0.00,0.0,WeatherDisplay:10.37,2013-08-14 03:40:00,
2013-08-13 22:50:00,72.8,65.9,29.99,NE,37,5.0,10.0,79,0.00,CLR,CLR,0.00,0.0,WeatherDisplay:10.37,2013-08-14 03:50:00,
2013-08-13 23:00:00,72.4,65.9,29.99,NNE,18,3.0,12.0,80,0.00,CLR,CLR,0.00,0.0,WeatherDisplay:10.37,2013-08-14 04:00:00,
2013-08-13 23:10:00,71.8,66.1,29.99,NNE,21,2.0,8.0,82,0.00,CLR,CLR,0.00,0.0,WeatherDisplay:10.37,2013-08-14 04:10:00,
2013-08-13 23:20:00,71.4,66.3,29.99,NNE,33,5.0,9.0,84,0.00,CLR,CLR,0.00,0.0,WeatherDisplay:10.37,2013-08-14 04:20:00,
2013-08-13 23:30:00,70.9,66.2,29.99,NNE,32,3.0,10.0,85,0.00,CLR,CLR,0.00,0.0,WeatherDisplay:10.37,2013-08-14 04:30:00,
2013-08-13 23:40:00,70.6,65.5,29.99,NNE,32,5.0,10.0,84,0.00,CLR,CLR,0.00,0.0,WeatherDisplay:10.37,2013-08-14 04:40:00,
2013-08-13 23:50:00,70.3,65.2,29.99,NNE,30,5.0,10.0,84,0.00,CLR,CLR,0.00,0.0,WeatherDisplay:10.37,2013-08-14 04:50:00,